Ogema, Minnesota
Current Conditions -  °F | °C
As of 4:35 AM on Thursday 18 Dec 2014 (Local Time) from K3N8 Reporting Station
Clear Clear  
Wind Chill:   Ceiling: Unl
Heat Index:   Visibility: 10mi
Dew Point:   Wind: 5mph
Humidity: 87%   Direction: 140°SE
Pressure: 30.25"   Gusts: NA
Location:  47.1°N, 95.93°W
Report Text: K3N8 181035Z AUTO 14004KT 10SM CLR M13/M15 A3025 RMK AO2 T11321150
Loading
Personal Weather Stations






























Interactive Weather Map New forecast layout! Learn more

10-Day Weather Forecast

Advertisements
Track Severe Weather on mobile